createdAt,value
2022-11-03T00:00:56.907Z,8.34
2022-11-03T00:03:58.681Z,8.25
2022-11-03T00:07:00.609Z,8.28
2022-11-03T00:10:02.472Z,8.25
2022-11-03T00:13:04.526Z,8.28
2022-11-03T00:16:07.476Z,8.25
2022-11-03T00:19:09.969Z,8.20
2022-11-03T00:22:11.992Z,8.18
2022-11-03T00:25:14.921Z,8.14
2022-11-03T00:28:16.718Z,8.08
2022-11-03T00:31:19.577Z,8.10
2022-11-03T00:34:21.481Z,7.97
2022-11-03T00:37:23.295Z,7.88
2022-11-03T00:40:25.020Z,7.84
2022-11-03T00:43:28.133Z,7.82
2022-11-03T00:46:30.675Z,7.76
2022-11-03T00:49:32.428Z,7.75
2022-11-03T00:52:34.151Z,7.73
2022-11-03T00:55:35.890Z,7.78
2022-11-03T00:58:37.775Z,7.80
2022-11-03T01:01:46.985Z,7.75
2022-11-03T01:05:07.845Z,7.86
2022-11-03T01:08:09.577Z,7.86
2022-11-03T01:11:32.262Z,7.86
2022-11-03T01:14:39.080Z,7.96
2022-11-03T01:17:41.546Z,7.84
2022-11-03T01:20:43.390Z,7.79
2022-11-03T01:23:45.121Z,7.86
2022-11-03T01:26:46.959Z,7.72
2022-11-03T01:29:48.814Z,7.65
2022-11-03T01:32:50.569Z,7.71
2022-11-03T01:35:55.412Z,7.67
2022-11-03T01:38:57.470Z,7.73
2022-11-03T01:41:59.401Z,7.67
2022-11-03T01:45:01.300Z,7.77
2022-11-03T01:48:02.991Z,7.59
2022-11-03T01:51:06.055Z,7.53
2022-11-03T01:54:11.784Z,7.41
2022-11-03T01:57:16.230Z,7.30
2022-11-03T02:00:18.681Z,7.30
2022-11-03T02:03:22.653Z,7.30
2022-11-03T02:06:27.097Z,7.38
2022-11-03T02:09:29.456Z,7.45
2022-11-03T02:12:32.143Z,7.25
2022-11-03T02:15:34.459Z,6.87
2022-11-03T02:18:36.317Z,6.87
2022-11-03T02:21:45.647Z,7.04
2022-11-03T02:25:00.242Z,7.21
2022-11-03T02:28:03.091Z,7.11
2022-11-03T02:31:36.122Z,7.19
2022-11-03T02:34:47.255Z,7.32
2022-11-03T02:37:53.133Z,7.24
2022-11-03T02:40:58.914Z,7.21
2022-11-03T02:44:01.357Z,7.14
2022-11-03T02:47:07.304Z,7.25
2022-11-03T02:50:10.737Z,7.14
2022-11-03T02:53:14.018Z,6.93
2022-11-03T02:56:20.646Z,6.98
2022-11-03T02:59:28.192Z,7.06
2022-11-03T03:02:38.493Z,7.06
2022-11-03T03:05:41.675Z,7.12
2022-11-03T03:08:49.040Z,7.16
2022-11-03T03:11:52.079Z,6.88
2022-11-03T03:14:58.364Z,6.89
2022-11-03T03:18:23.680Z,6.83
2022-11-03T03:21:33.730Z,7.01
2022-11-03T03:25:00.180Z,6.70
2022-11-03T03:28:18.837Z,6.69
2022-11-03T03:31:21.884Z,6.86
2022-11-03T03:34:34.712Z,6.73
2022-11-03T03:37:40.908Z,6.45
2022-11-03T03:40:44.355Z,6.40
2022-11-03T03:43:46.592Z,6.39
2022-11-03T03:46:57.352Z,6.49
2022-11-03T03:49:59.292Z,6.57
2022-11-03T03:53:02.510Z,6.40
2022-11-03T03:56:05.961Z,6.09
2022-11-03T03:59:08.573Z,5.92
2022-11-03T04:02:11.705Z,5.84
2022-11-03T04:05:13.743Z,5.75
2022-11-03T04:08:17.151Z,5.71
2022-11-03T04:11:37.449Z,5.68
2022-11-03T04:14:57.839Z,5.63
2022-11-03T04:18:18.186Z,5.73
2022-11-03T04:21:38.744Z,5.61
2022-11-03T04:24:40.623Z,5.40
2022-11-03T04:27:42.365Z,5.25
2022-11-03T04:30:44.137Z,5.20
2022-11-03T04:33:46.442Z,5.21
2022-11-03T04:36:48.223Z,5.22
2022-11-03T04:39:50.213Z,4.95
2022-11-03T04:42:52.146Z,4.83
2022-11-03T04:45:53.862Z,4.99
2022-11-03T04:48:59.625Z,4.98
2022-11-03T04:52:01.589Z,5.11
2022-11-03T04:55:06.522Z,5.12
2022-11-03T04:58:28.059Z,5.04
2022-11-03T05:01:30.164Z,5.03
2022-11-03T05:04:32.172Z,5.00
2022-11-03T05:07:35.405Z,4.90
2022-11-03T05:10:37.575Z,5.00
2022-11-03T05:13:39.343Z,5.00
2022-11-03T05:16:41.904Z,5.01
2022-11-03T05:19:44.212Z,4.97
2022-11-03T05:22:50.878Z,4.95
2022-11-03T05:25:54.764Z,4.90
2022-11-03T05:29:24.606Z,4.96
2022-11-03T05:32:29.461Z,4.95
2022-11-03T05:35:31.946Z,4.99
2022-11-03T05:38:35.287Z,4.96
2022-11-03T05:41:38.497Z,4.98
2022-11-03T05:44:40.977Z,4.84
2022-11-03T05:47:42.910Z,4.88
2022-11-03T05:50:44.817Z,5.02
2022-11-03T05:53:50.870Z,5.01
2022-11-03T05:56:53.583Z,5.04
2022-11-03T05:59:56.001Z,5.14
2022-11-03T06:03:00.354Z,5.15
2022-11-03T06:06:02.643Z,5.38
2022-11-03T06:09:14.067Z,5.67
2022-11-03T06:12:19.571Z,5.71
2022-11-03T06:15:33.472Z,5.92
2022-11-03T06:18:37.428Z,6.03
2022-11-03T06:21:44.433Z,6.04
2022-11-03T06:24:47.523Z,6.16
2022-11-03T06:27:52.192Z,6.20
2022-11-03T06:30:54.621Z,6.31
2022-11-03T06:33:58.111Z,6.24
2022-11-03T06:37:12.662Z,6.29
2022-11-03T06:40:15.665Z,6.24
2022-11-03T06:43:28.258Z,6.23
2022-11-03T06:46:31.353Z,6.25
2022-11-03T06:49:35.168Z,6.49
2022-11-03T06:52:44.036Z,6.67
2022-11-03T06:55:47.310Z,6.82
2022-11-03T06:58:51.531Z,6.98
2022-11-03T07:01:56.185Z,6.99
2022-11-03T07:04:58.930Z,6.99
2022-11-03T07:08:04.294Z,7.00
2022-11-03T07:11:15.293Z,7.17
2022-11-03T07:14:22.554Z,7.28
2022-11-03T07:17:26.786Z,7.39
2022-11-03T07:20:29.891Z,7.61
2022-11-03T07:23:31.852Z,7.89
2022-11-03T07:26:34.812Z,8.14
2022-11-03T07:29:37.444Z,8.35
2022-11-03T07:32:40.314Z,8.42
2022-11-03T07:36:13.211Z,8.49
2022-11-03T07:39:06.664Z,8.49
2022-11-03T07:42:19.489Z,8.64
2022-11-03T07:45:42.920Z,8.76
2022-11-03T07:48:47.119Z,8.86
2022-11-03T07:51:51.227Z,8.92
2022-11-03T07:54:55.309Z,9.10
2022-11-03T07:57:58.214Z,9.36
2022-11-03T08:01:01.598Z,9.49
2022-11-03T08:04:06.621Z,9.73
2022-11-03T08:07:10.275Z,9.66
2022-11-03T08:10:14.044Z,9.66
2022-11-03T08:13:17.672Z,9.77
2022-11-03T08:16:20.645Z,9.68
2022-11-03T08:19:23.085Z,9.66
2022-11-03T08:22:26.356Z,9.56
2022-11-03T08:25:29.077Z,9.53
2022-11-03T08:28:32.751Z,9.59
2022-11-03T08:31:35.443Z,9.69
2022-11-03T08:34:39.886Z,9.82
2022-11-03T08:37:42.404Z,9.90
2022-11-03T08:40:44.585Z,9.90
2022-11-03T08:43:47.439Z,10.05
2022-11-03T08:46:50.387Z,10.07
2022-11-03T08:49:52.535Z,10.43
2022-11-03T08:52:54.960Z,10.69
2022-11-03T08:55:58.173Z,10.92
2022-11-03T08:59:00.343Z,11.07
2022-11-03T09:02:02.836Z,11.19
2022-11-03T09:05:06.149Z,11.15
2022-11-03T09:11:32.058Z,10.85
2022-11-03T09:14:34.288Z,10.59
2022-11-03T09:17:36.675Z,10.91
2022-11-03T09:20:39.831Z,10.80
2022-11-03T09:23:45.021Z,10.89
2022-11-03T09:26:46.895Z,10.93
2022-11-03T09:30:12.289Z,11.16
2022-11-03T09:33:18.895Z,11.51
2022-11-03T09:36:21.029Z,11.63
2022-11-03T09:39:23.127Z,11.64
2022-11-03T09:42:25.700Z,11.65
2022-11-03T09:45:27.904Z,11.63
2022-11-03T09:48:30.438Z,11.69
2022-11-03T09:51:32.817Z,12.21
2022-11-03T09:54:35.292Z,12.32
2022-11-03T09:57:37.345Z,12.83
2022-11-03T10:00:39.844Z,12.92
2022-11-03T10:03:42.065Z,12.82
2022-11-03T10:06:44.314Z,12.87
2022-11-03T10:09:48.420Z,12.69
2022-11-03T10:12:53.416Z,12.77
2022-11-03T10:15:56.473Z,12.84
2022-11-03T10:18:58.486Z,13.13
2022-11-03T10:22:00.443Z,13.02
2022-11-03T10:25:30.548Z,13.05
2022-11-03T10:28:32.588Z,13.27
2022-11-03T10:31:39.825Z,13.48
2022-11-03T10:34:42.143Z,13.57
2022-11-03T10:37:45.069Z,13.88
2022-11-03T10:40:48.524Z,14.33
2022-11-03T10:44:05.653Z,14.56
2022-11-03T10:47:42.318Z,14.45
2022-11-03T10:50:45.019Z,14.33
2022-11-03T10:53:46.853Z,14.50
2022-11-03T10:56:51.057Z,14.40
2022-11-03T10:59:54.514Z,14.48
2022-11-03T11:03:00.105Z,14.58
2022-11-03T11:06:02.330Z,14.62
2022-11-03T11:09:05.451Z,14.44
2022-11-03T11:12:17.945Z,14.23
2022-11-03T11:15:35.300Z,14.47
2022-11-03T11:19:00.193Z,14.36
2022-11-03T11:22:13.364Z,14.36
2022-11-03T11:25:16.166Z,14.41
2022-11-03T11:28:19.668Z,14.69
2022-11-03T11:31:27.449Z,14.50
2022-11-03T11:34:35.473Z,14.58
2022-11-03T11:37:38.531Z,14.58
2022-11-03T11:40:50.540Z,14.56
2022-11-03T11:43:54.709Z,14.64
2022-11-03T11:46:56.765Z,14.79
2022-11-03T11:50:09.141Z,14.86
2022-11-03T11:53:13.033Z,15.00
2022-11-03T11:56:16.724Z,15.04
2022-11-03T11:59:25.346Z,14.92
2022-11-03T12:02:30.623Z,14.75
2022-11-03T12:05:34.356Z,15.15
2022-11-03T12:08:36.525Z,15.14
2022-11-03T12:11:56.792Z,14.98
2022-11-03T12:15:00.812Z,15.06
2022-11-03T12:18:39.099Z,15.48
2022-11-03T12:21:48.266Z,15.73
2022-11-03T12:24:58.782Z,15.59
2022-11-03T12:28:01.816Z,15.16
2022-11-03T12:31:04.974Z,14.89
2022-11-03T12:34:07.377Z,15.09
2022-11-03T12:37:10.166Z,15.29
2022-11-03T12:40:14.737Z,15.22
2022-11-03T12:43:17.539Z,14.91
2022-11-03T12:46:21.721Z,14.75
2022-11-03T12:49:23.695Z,15.12
2022-11-03T12:52:25.627Z,15.43
2022-11-03T12:58:30.674Z,15.59
2022-11-03T13:01:33.629Z,15.61
2022-11-03T13:04:35.810Z,15.28
2022-11-03T13:07:38.352Z,15.21
2022-11-03T13:10:41.197Z,15.43
2022-11-03T13:13:44.254Z,15.40
2022-11-03T13:16:46.828Z,15.28
2022-11-03T13:19:54.469Z,15.31
2022-11-03T13:22:57.870Z,15.17
2022-11-03T13:26:00.209Z,15.01
2022-11-03T13:29:02.480Z,15.06
2022-11-03T13:32:05.560Z,15.15
2022-11-03T13:35:12.487Z,15.22
2022-11-03T13:38:16.406Z,15.00
2022-11-03T13:41:18.972Z,14.95
2022-11-03T13:44:21.745Z,14.93
2022-11-03T13:47:34.385Z,14.89
2022-11-03T13:50:47.513Z,14.89
2022-11-03T14:00:35.277Z,14.90
2022-11-03T14:07:00.166Z,14.64
2022-11-03T14:10:04.013Z,14.81
2022-11-03T14:13:08.302Z,14.53
2022-11-03T14:16:11.434Z,14.53
2022-11-03T14:19:13.450Z,14.50
2022-11-03T14:22:15.554Z,14.28
2022-11-03T14:25:20.468Z,14.24
2022-11-03T14:28:26.228Z,14.24
2022-11-03T14:31:29.208Z,14.17
2022-11-03T14:34:31.480Z,14.21
2022-11-03T14:37:33.885Z,14.10
2022-11-03T14:40:54.842Z,14.11
2022-11-03T14:43:57.338Z,14.15
2022-11-03T14:47:01.787Z,14.01
2022-11-03T14:50:05.490Z,13.90
2022-11-03T14:53:08.337Z,13.84
2022-11-03T14:56:12.264Z,13.68
2022-11-03T14:59:14.528Z,13.61
2022-11-03T15:02:17.469Z,13.59
2022-11-03T15:05:45.868Z,13.49
2022-11-03T15:08:53.446Z,13.49
2022-11-03T15:11:58.377Z,13.47
2022-11-03T15:15:04.506Z,13.38
2022-11-03T15:18:08.000Z,13.27
2022-11-03T15:21:10.314Z,13.21
2022-11-03T15:27:39.044Z,13.18
2022-11-03T15:30:41.477Z,13.05
2022-11-03T15:33:43.436Z,13.01
2022-11-03T15:36:45.628Z,12.96
2022-11-03T15:39:47.851Z,13.01
2022-11-03T15:42:49.960Z,12.93
2022-11-03T15:45:52.133Z,12.92
2022-11-03T15:48:56.757Z,12.84
2022-11-03T15:51:58.714Z,12.86
2022-11-03T15:55:00.609Z,12.81
2022-11-03T15:58:02.797Z,12.75
2022-11-03T16:01:05.682Z,12.80
2022-11-03T16:04:07.793Z,12.68
2022-11-03T16:07:09.688Z,12.69
2022-11-03T16:10:17.958Z,12.61
2022-11-03T16:13:19.898Z,12.59
2022-11-03T16:16:22.254Z,12.65
2022-11-03T16:19:24.261Z,12.67
2022-11-03T16:22:27.100Z,12.85
2022-11-03T16:25:29.211Z,12.79
2022-11-03T16:28:31.606Z,12.85
2022-11-03T16:31:33.458Z,12.68
2022-11-03T16:34:35.227Z,12.70
2022-11-03T16:37:37.742Z,12.71
2022-11-03T16:40:39.793Z,12.61
2022-11-03T16:43:41.800Z,12.61
2022-11-03T16:46:43.647Z,12.61
2022-11-03T16:49:45.974Z,12.54
2022-11-03T16:52:49.362Z,12.44
2022-11-03T16:55:51.350Z,12.41
2022-11-03T16:58:53.240Z,12.34
2022-11-03T17:01:57.450Z,12.39
2022-11-03T17:04:59.367Z,12.27
2022-11-03T17:08:02.397Z,12.20
2022-11-03T17:11:04.545Z,12.15
2022-11-03T17:14:09.296Z,12.12
2022-11-03T17:17:11.581Z,12.06
2022-11-03T17:20:13.660Z,12.05
2022-11-03T17:23:16.048Z,11.87
2022-11-03T17:26:21.750Z,11.81
2022-11-03T17:29:31.707Z,11.79
2022-11-03T17:32:39.665Z,11.69
2022-11-03T17:35:43.257Z,11.57
2022-11-03T17:38:45.489Z,11.52
2022-11-03T17:41:47.834Z,11.53
2022-11-03T17:44:51.268Z,11.57
2022-11-03T17:47:54.305Z,11.56
2022-11-03T17:50:56.589Z,11.43
2022-11-03T17:53:59.390Z,11.47
2022-11-03T17:57:02.962Z,11.43
2022-11-03T18:00:06.071Z,11.50
2022-11-03T18:03:15.276Z,11.49
2022-11-03T18:06:19.512Z,11.49
2022-11-03T18:09:22.107Z,11.53
2022-11-03T18:12:45.818Z,11.43
2022-11-03T18:15:52.988Z,11.49
2022-11-03T18:18:55.407Z,11.51
2022-11-03T18:21:57.912Z,11.46
2022-11-03T18:25:00.289Z,11.37
2022-11-03T18:28:02.837Z,11.39
2022-11-03T18:31:06.700Z,11.47
2022-11-03T18:34:31.624Z,11.52
2022-11-03T18:37:35.938Z,11.52
2022-11-03T18:40:41.068Z,11.45
2022-11-03T18:43:43.347Z,11.50
2022-11-03T18:46:48.555Z,11.46
2022-11-03T18:49:54.667Z,11.48
2022-11-03T18:52:59.834Z,11.49
2022-11-03T18:56:02.556Z,11.46
2022-11-03T18:59:05.233Z,11.40
2022-11-03T19:02:15.666Z,11.41
2022-11-03T19:05:19.027Z,11.38
2022-11-03T19:08:41.184Z,11.39
2022-11-03T19:11:43.987Z,11.39
2022-11-03T19:14:49.054Z,11.29
2022-11-03T19:17:58.337Z,11.33
2022-11-03T19:21:02.217Z,11.34
2022-11-03T19:24:05.139Z,11.32
2022-11-03T19:27:17.068Z,11.23
2022-11-03T19:30:21.524Z,11.30
2022-11-03T19:33:33.958Z,11.25
2022-11-03T19:36:43.719Z,11.24
2022-11-03T19:39:49.014Z,11.23
2022-11-03T19:42:52.527Z,11.20
2022-11-03T19:45:59.614Z,11.16
2022-11-03T19:49:01.770Z,11.16
2022-11-03T19:52:06.434Z,11.19
2022-11-03T19:55:13.141Z,11.18
2022-11-03T19:58:19.647Z,11.19
2022-11-03T20:01:22.353Z,11.10
2022-11-03T20:04:25.032Z,11.17
2022-11-03T20:07:31.448Z,11.18
2022-11-03T20:10:36.053Z,11.20
2022-11-03T20:13:40.991Z,11.17
2022-11-03T20:16:43.358Z,11.13
2022-11-03T20:19:45.715Z,11.02
2022-11-03T20:22:51.924Z,11.10
2022-11-03T20:25:54.779Z,11.13
2022-11-03T20:28:57.198Z,11.06
2022-11-03T20:31:59.741Z,11.06
2022-11-03T20:35:02.198Z,11.04
2022-11-03T20:38:04.160Z,11.09
2022-11-03T20:41:13.219Z,11.09
2022-11-03T20:44:16.785Z,11.03
2022-11-03T20:47:19.274Z,10.99
2022-11-03T20:50:21.375Z,11.08
2022-11-03T20:53:25.611Z,11.06
2022-11-03T20:56:28.547Z,11.02
2022-11-03T20:59:33.247Z,11.06
2022-11-03T21:02:38.080Z,11.04
2022-11-03T21:05:40.052Z,10.95
2022-11-03T21:08:43.613Z,10.97
2022-11-03T21:11:46.499Z,11.00
2022-11-03T21:15:07.561Z,10.98
2022-11-03T21:18:33.918Z,11.00
2022-11-03T21:21:36.551Z,10.93
2022-11-03T21:24:38.592Z,10.95
2022-11-03T21:27:42.150Z,11.01
2022-11-03T21:30:44.417Z,11.02
2022-11-03T21:33:46.721Z,11.05
2022-11-03T21:36:48.895Z,11.00
2022-11-03T21:39:50.974Z,11.02
2022-11-03T21:43:11.661Z,11.05
2022-11-03T21:46:13.571Z,11.11
2022-11-03T21:49:34.168Z,11.02
2022-11-03T21:52:36.954Z,11.00
2022-11-03T21:55:39.209Z,11.11
2022-11-03T21:58:41.658Z,11.07
2022-11-03T22:01:43.887Z,11.00
2022-11-03T22:04:46.357Z,11.02
2022-11-03T22:07:48.478Z,10.97
2022-11-03T22:10:50.816Z,10.99
2022-11-03T22:13:58.343Z,11.13
2022-11-03T22:20:20.405Z,11.05
2022-11-03T22:24:00.387Z,11.13
2022-11-03T22:27:02.372Z,11.00
2022-11-03T22:30:23.520Z,11.04
2022-11-03T22:33:26.940Z,11.04
2022-11-03T22:36:28.830Z,11.04
2022-11-03T22:39:49.306Z,11.08
2022-11-03T22:43:10.154Z,11.12
2022-11-03T22:46:14.150Z,11.05
2022-11-03T22:49:16.031Z,11.00
2022-11-03T22:52:18.018Z,11.05
2022-11-03T22:55:19.777Z,11.06
2022-11-03T22:58:24.312Z,11.16
2022-11-03T23:01:28.618Z,11.04
2022-11-03T23:04:30.574Z,11.05
2022-11-03T23:07:40.810Z,11.02
2022-11-03T23:10:43.483Z,11.02
2022-11-03T23:13:57.885Z,11.05
2022-11-03T23:16:59.567Z,11.00
2022-11-03T23:20:20.028Z,10.99
2022-11-03T23:23:40.396Z,10.94
2022-11-03T23:26:42.964Z,10.89
2022-11-03T23:29:44.864Z,10.95
2022-11-03T23:32:46.880Z,10.97
2022-11-03T23:35:48.924Z,10.97
2022-11-03T23:38:50.800Z,11.01
2022-11-03T23:41:52.668Z,10.99
2022-11-03T23:45:13.115Z,10.93
2022-11-03T23:48:33.610Z,11.00
2022-11-03T23:51:36.620Z,10.92
2022-11-03T23:54:38.570Z,10.98
2022-11-03T23:57:58.889Z,10.91
